Terminal Aerodrome Forecast
Issued by NWS Houston/Galveston TX

Home | Current Version | Previous Version | Text Only | Print | Product List | Glossary On
Versions: 1 2 3 4 5 6 7 8 9 10 11 12 13 14 15 16 17 18 19 20 21 22 23 24 25 26 27 28 29
000
FTUS44 KHGX 300520
TAFHOU
TAF
KHOU 300520Z 3006/0106 17015G23KT P6SM VCSH BKN016 OVC028
      TEMPO 3008/3012 -TSRA BKN015CB
     FM301200 19005KT 6SM BR VCSH BKN015
     FM301400 20006KT P6SM SCT025 BKN035
     FM301900 18008KT P6SM VCTS SCT035CB
     FM010000 18005KT P6SM SCT015 BKN040=

USA.gov is the U.S. government's official web portal to all federal, state and local government web resources and services.